Time;durP1;ratioP1;P1;durP2;ratioP2;P2;SDS_P1;SDS_P2;PMS_P1;PMS_P2;Temp;Humidity;BMP_temperature;BMP_pressure;BME280_temperature;BME280_humidity;BME280_pressure;Samples;Min_cycle;Max_cycle;Signal;HPM_P1;HPM_P2
2021/03/07 00:02:25;;;;;;;42.08;27.70;;;8.30;99.90;;;;;;5093292;28;20036;-81
2021/03/07 00:04:51;;;;;;;39.58;26.38;;;8.30;99.90;;;;;;5093334;28;20028;-81
2021/03/07 00:07:17;;;;;;;39.47;27.05;;;8.30;99.90;;;;;;5093151;28;20034;-81
2021/03/07 00:09:42;;;;;;;41.15;27.15;;;8.20;99.90;;;;;;5075227;28;20114;-81
2021/03/07 00:12:08;;;;;;;39.70;26.98;;;8.20;99.90;;;;;;5092985;28;20024;-81
2021/03/07 00:14:34;;;;;;;43.17;25.45;;;8.20;99.90;;;;;;5093309;28;20095;-81
2021/03/07 00:16:59;;;;;;;37.20;25.38;;;8.20;99.90;;;;;;5093227;28;20442;-81
2021/03/07 00:19:25;;;;;;;38.45;24.73;;;8.30;99.90;;;;;;5093074;28;20016;-81
2021/03/07 00:21:50;;;;;;;39.10;24.45;;;8.30;99.90;;;;;;5093007;28;20032;-81
2021/03/07 00:24:16;;;;;;;33.83;23.40;;;8.50;99.90;;;;;;5092825;28;20033;-81
2021/03/07 00:26:42;;;;;;;36.08;24.42;;;8.40;99.90;;;;;;5074437;28;20023;-81
2021/03/07 00:29:07;;;;;;;35.05;23.13;;;8.50;99.90;;;;;;5092845;28;20028;-81
2021/03/07 00:31:33;;;;;;;33.67;22.35;;;8.50;99.90;;;;;;5092888;28;20032;-81
2021/03/07 00:33:59;;;;;;;34.95;23.55;;;8.60;99.90;;;;;;5092840;28;20020;-81
2021/03/07 00:36:24;;;;;;;34.30;23.77;;;8.60;99.90;;;;;;5075609;28;20028;-81
2021/03/07 00:38:50;;;;;;;36.17;23.98;;;8.60;99.90;;;;;;5072495;28;20025;-81
2021/03/07 00:41:16;;;;;;;34.10;23.45;;;8.70;99.90;;;;;;5072304;28;20082;-81
2021/03/07 00:43:41;;;;;;;33.70;23.92;;;8.60;99.90;;;;;;5072693;28;20047;-81
2021/03/07 00:46:07;;;;;;;35.92;24.55;;;8.60;99.90;;;;;;5072621;28;20028;-81
2021/03/07 00:48:33;;;;;;;35.88;23.95;;;8.60;99.90;;;;;;5054672;28;20069;-81
2021/03/07 00:50:59;;;;;;;32.60;23.95;;;8.60;99.90;;;;;;5086443;28;20023;-81
2021/03/07 00:53:25;;;;;;;34.75;23.33;;;8.50;99.90;;;;;;5092374;28;20021;-81
2021/03/07 00:55:50;;;;;;;34.55;24.60;;;8.60;99.90;;;;;;5092447;28;20028;-81
2021/03/07 00:58:16;;;;;;;35.65;24.67;;;8.60;99.90;;;;;;5092439;28;20464;-81
2021/03/07 01:00:45;;;;;;;32.20;22.98;;;8.60;99.90;;;;;;5092599;28;20025;-81
2021/03/07 01:03:11;;;;;;;33.10;23.23;;;8.50;99.90;;;;;;5092347;28;20568;-81
2021/03/07 01:05:37;;;;;;;35.35;23.63;;;8.40;99.90;;;;;;5092289;28;20031;-81
2021/03/07 01:08:03;;;;;;;33.50;23.23;;;8.40;99.90;;;;;;5092518;28;20391;-81
2021/03/07 01:10:34;;;;;;;33.80;24.38;;;8.30;99.90;;;;;;5092117;28;20028;-81
2021/03/07 01:13:00;;;;;;;37.90;26.45;;;8.70;99.90;;;;;;5092454;28;20016;-81
2021/03/07 01:15:31;;;;;;;32.83;24.88;;;8.30;99.90;;;;;;5092373;28;20381;-81
2021/03/07 01:17:57;;;;;;;38.08;23.40;;;8.60;99.90;;;;;;5092348;28;20024;-81
2021/03/07 01:20:23;;;;;;;31.83;23.13;;;8.20;99.90;;;;;;5092119;28;20028;-81
2021/03/07 01:22:49;;;;;;;30.35;21.75;;;8.60;99.90;;;;;;5092450;28;20051;-81
2021/03/07 01:25:20;;;;;;;31.08;22.05;;;8.00;99.90;;;;;;5092136;28;20150;-81
2021/03/07 01:27:46;;;;;;;30.63;21.20;;;7.90;99.90;;;;;;5092306;28;20016;-81
2021/03/07 01:30:14;;;;;;;34.63;23.65;;;7.90;99.90;;;;;;5092489;28;20032;-81
2021/03/07 01:32:40;;;;;;;34.35;23.20;;;7.80;99.90;;;;;;5092079;28;20024;-81
2021/03/07 01:35:06;;;;;;;31.30;23.65;;;8.00;99.90;;;;;;5091850;28;20027;-81
2021/03/07 01:37:31;;;;;;;35.67;23.30;;;7.60;99.90;;;;;;5092087;28;20020;-81
2021/03/07 01:39:57;;;;;;;31.92;21.65;;;7.90;99.90;;;;;;5091958;28;20075;-81
2021/03/07 01:42:23;;;;;;;33.38;24.58;;;8.00;99.90;;;;;;5095067;28;20035;-81
2021/03/07 01:44:49;;;;;;;32.05;22.15;;;7.80;99.90;;;;;;5096263;28;20035;-81
2021/03/07 01:47:24;;;;;;;29.33;20.33;;;7.80;99.90;;;;;;5096131;28;20434;-81
2021/03/07 01:49:50;;;;;;;34.95;22.52;;;7.80;99.90;;;;;;5095916;28;20057;-81
2021/03/07 01:52:15;;;;;;;31.23;21.88;;;7.80;99.90;;;;;;5095882;28;20057;-81
2021/03/07 01:54:41;;;;;;;36.63;25.60;;;7.90;99.90;;;;;;5095546;28;20387;-81
2021/03/07 01:57:07;;;;;;;33.38;23.85;;;7.80;99.90;;;;;;5095968;28;20020;-81
2021/03/07 01:59:34;;;;;;;32.13;23.38;;;7.80;99.90;;;;;;5095537;28;20016;-81
2021/03/07 02:02:00;;;;;;;38.30;25.98;;;7.80;99.90;;;;;;5095589;28;20103;-81
2021/03/07 02:04:26;;;;;;;36.75;25.17;;;7.90;99.90;;;;;;5095691;28;20113;-81
2021/03/07 02:06:51;;;;;;;33.53;24.17;;;8.00;99.90;;;;;;5095696;28;20032;-81
2021/03/07 02:09:17;;;;;;;32.80;25.15;;;8.00;99.90;;;;;;5095398;28;20043;-81
2021/03/07 02:11:44;;;;;;;35.22;26.15;;;7.80;99.90;;;;;;5095653;28;20475;-81
2021/03/07 02:14:10;;;;;;;37.33;26.38;;;7.80;99.90;;;;;;5095582;28;20105;-81
2021/03/07 02:16:37;;;;;;;40.33;26.85;;;7.80;99.90;;;;;;5095364;28;20052;-81
2021/03/07 02:19:05;;;;;;;36.65;26.33;;;7.80;99.90;;;;;;5095238;28;20042;-81
2021/03/07 02:21:41;;;;;;;37.90;27.38;;;7.80;99.90;;;;;;5095530;28;20029;-81
2021/03/07 02:24:14;;;;;;;36.67;26.02;;;7.90;99.90;;;;;;5095121;28;20032;-81
2021/03/07 02:26:51;;;;;;;36.10;26.15;;;7.80;99.90;;;;;;5095278;28;20035;-81
2021/03/07 02:29:19;;;;;;;34.63;26.48;;;7.80;99.90;;;;;;5095208;28;20499;-81
2021/03/07 02:31:50;;;;;;;35.13;25.70;;;7.90;99.90;;;;;;5095190;28;20388;-81
2021/03/07 02:34:28;;;;;;;38.67;28.48;;;7.70;99.90;;;;;;5094535;28;20028;-81
2021/03/07 02:36:57;;;;;;;41.08;28.52;;;7.80;99.90;;;;;;5094833;28;20021;-81
2021/03/07 02:39:26;;;;;;;42.80;29.00;;;7.80;99.90;;;;;;5094976;28;20027;-81
2021/03/07 02:41:55;;;;;;;44.53;30.88;;;7.70;99.90;;;;;;5095235;28;20077;-81
2021/03/07 02:44:23;;;;;;;44.30;29.95;;;8.00;99.90;;;;;;5095122;28;20020;-81
2021/03/07 02:46:50;;;;;;;40.53;29.15;;;7.70;99.90;;;;;;5094978;28;20028;-81
2021/03/07 02:49:17;;;;;;;43.40;30.67;;;7.70;99.90;;;;;;5094644;28;20056;-81
2021/03/07 02:51:45;;;;;;;41.95;29.73;;;7.60;99.90;;;;;;5094171;28;20103;-81
2021/03/07 02:54:12;;;;;;;41.75;29.50;;;7.60;99.90;;;;;;5094734;28;20441;-81
2021/03/07 02:56:39;;;;;;;44.97;31.83;;;7.80;99.90;;;;;;5094432;28;20025;-81
2021/03/07 02:59:12;;;;;;;43.55;30.13;;;8.00;99.90;;;;;;5094321;28;20024;-81
2021/03/07 03:01:39;;;;;;;43.33;29.38;;;7.80;99.90;;;;;;5094729;28;20429;-81
2021/03/07 03:04:07;;;;;;;42.42;28.90;;;7.90;99.90;;;;;;5094464;28;20051;-81
2021/03/07 03:06:36;;;;;;;40.88;28.20;;;7.90;99.90;;;;;;5094312;28;20020;-81
2021/03/07 03:09:06;;;;;;;39.50;28.20;;;7.90;99.90;;;;;;5076421;28;20520;-81
2021/03/07 03:11:34;;;;;;;40.10;28.60;;;7.90;99.90;;;;;;5094476;28;20529;-81
2021/03/07 03:14:01;;;;;;;40.08;28.35;;;8.00;99.90;;;;;;5094378;28;20442;-81
2021/03/07 03:16:30;;;;;;;44.75;29.17;;;8.00;99.90;;;;;;5094379;28;20028;-81
2021/03/07 03:18:58;;;;;;;42.30;28.70;;;8.00;99.90;;;;;;5093695;28;20046;-81
2021/03/07 03:21:24;;;;;;;41.33;28.65;;;8.00;99.90;;;;;;5094127;28;20020;-81
2021/03/07 03:23:50;;;;;;;41.55;29.92;;;8.00;99.90;;;;;;5094267;28;20032;-81
2021/03/07 03:26:18;;;;;;;40.97;28.48;;;8.20;99.90;;;;;;5094178;28;20027;-81
2021/03/07 03:28:44;;;;;;;44.10;29.13;;;8.20;99.90;;;;;;5093805;28;20135;-81
2021/03/07 03:31:10;;;;;;;41.88;28.08;;;8.30;99.90;;;;;;5075894;28;20399;-81
2021/03/07 03:33:35;;;;;;;38.28;27.52;;;8.20;99.90;;;;;;5093771;28;20028;-81
2021/03/07 03:36:02;;;;;;;36.35;27.23;;;8.20;99.90;;;;;;5093739;28;20020;-81
2021/03/07 03:38:35;;;;;;;38.35;27.70;;;8.20;99.90;;;;;;5094029;28;20016;-81
2021/03/07 03:41:01;;;;;;;43.58;28.65;;;8.30;99.90;;;;;;5093739;28;20054;-81
2021/03/07 03:43:28;;;;;;;37.95;26.52;;;8.20;99.90;;;;;;5094107;28;20023;-81
2021/03/07 03:45:57;;;;;;;37.83;28.42;;;8.20;99.90;;;;;;5094330;28;20032;-81
2021/03/07 03:48:28;;;;;;;40.55;26.75;;;8.00;99.90;;;;;;5093340;28;20054;-81
2021/03/07 03:50:56;;;;;;;38.67;26.20;;;8.00;99.90;;;;;;5093280;28;20031;-81
2021/03/07 03:53:23;;;;;;;37.00;25.98;;;8.10;99.90;;;;;;5093473;28;20024;-81
2021/03/07 03:55:51;;;;;;;39.45;26.67;;;8.10;99.90;;;;;;5093535;28;20489;-81
2021/03/07 03:58:22;;;;;;;40.38;27.58;;;8.10;99.90;;;;;;5093390;28;20104;-81
2021/03/07 04:00:50;;;;;;;34.28;25.33;;;8.20;99.90;;;;;;5093555;28;20028;-81
2021/03/07 04:03:18;;;;;;;35.38;24.48;;;8.10;99.90;;;;;;5092996;28;20063;-81
2021/03/07 04:05:48;;;;;;;34.42;25.25;;;8.00;99.90;;;;;;5092796;28;20028;-81
2021/03/07 04:08:19;;;;;;;34.35;25.08;;;8.00;99.90;;;;;;5093439;28;20020;-81
2021/03/07 04:10:46;;;;;;;36.15;25.17;;;8.10;99.90;;;;;;5093133;28;20028;-81
2021/03/07 04:13:24;;;;;;;36.15;25.42;;;8.10;99.90;;;;;;5093436;28;20028;-81
2021/03/07 04:15:51;;;;;;;36.83;24.63;;;7.90;99.90;;;;;;5093200;28;20472;-81
2021/03/07 04:18:21;;;;;;;32.63;23.70;;;8.00;99.90;;;;;;5092696;28;20085;-81
2021/03/07 04:20:47;;;;;;;32.85;21.50;;;8.00;99.90;;;;;;5093061;28;20051;-81
2021/03/07 04:23:13;;;;;;;29.13;21.50;;;8.10;99.90;;;;;;5093330;28;20093;-81
2021/03/07 04:25:39;;;;;;;26.67;20.00;;;8.20;99.90;;;;;;5093144;28;20028;-81
2021/03/07 04:28:06;;;;;;;28.70;17.65;;;8.30;99.90;;;;;;5092998;28;20053;-81
2021/03/07 04:30:33;;;;;;;30.33;17.42;;;8.80;99.90;;;;;;5093111;28;20032;-81
2021/03/07 04:32:59;;;;;;;25.63;16.40;;;8.50;99.90;;;;;;5092087;28;20035;-81
2021/03/07 04:35:25;;;;;;;22.67;16.10;;;8.60;99.90;;;;;;5093038;28;20111;-81
2021/03/07 04:37:51;;;;;;;26.33;15.65;;;8.70;99.90;;;;;;5092714;28;20095;-81
2021/03/07 04:40:16;;;;;;;23.75;16.10;;;8.70;99.90;;;;;;5092921;28;20024;-81
2021/03/07 04:42:44;;;;;;;26.00;15.68;;;8.80;99.90;;;;;;5092766;28;20024;-81
2021/03/07 04:45:14;;;;;;;24.52;15.43;;;9.20;99.90;;;;;;5092856;28;20036;-81
2021/03/07 04:47:41;;;;;;;22.52;14.82;;;8.80;99.90;;;;;;5092084;28;20026;-81
2021/03/07 04:50:08;;;;;;;23.98;15.45;;;9.30;99.90;;;;;;5092285;28;20069;-81
2021/03/07 04:52:34;;;;;;;21.15;15.02;;;8.90;99.90;;;;;;5092601;28;20024;-81
2021/03/07 04:54:59;;;;;;;25.80;14.07;;;9.30;99.90;;;;;;5092581;28;20511;-81
2021/03/07 04:57:25;;;;;;;23.35;14.70;;;9.40;99.90;;;;;;5092709;28;20016;-81
2021/03/07 04:59:50;;;;;;;23.67;14.32;;;8.90;99.90;;;;;;5083725;28;20021;-81
2021/03/07 05:02:16;;;;;;;22.52;14.55;;;9.20;99.90;;;;;;5072225;28;20025;-81
2021/03/07 05:04:42;;;;;;;25.08;14.95;;;9.40;99.90;;;;;;5059027;28;20024;-81
2021/03/07 05:07:07;;;;;;;19.67;13.60;;;9.30;99.90;;;;;;5088162;28;20033;-81
2021/03/07 05:09:33;;;;;;;22.27;14.48;;;9.20;99.90;;;;;;5093081;28;20476;-81
2021/03/07 05:11:58;;;;;;;22.00;13.98;;;8.90;99.90;;;;;;5074256;28;20028;-81
2021/03/07 05:14:24;;;;;;;22.67;14.38;;;8.90;99.90;;;;;;5074328;28;20384;-81
2021/03/07 05:16:50;;;;;;;20.30;14.38;;;9.40;99.90;;;;;;5073776;28;20037;-81
2021/03/07 05:19:15;;;;;;;24.48;13.30;;;9.20;99.90;;;;;;5075578;28;20477;-81
2021/03/07 05:21:41;;;;;;;27.95;15.35;;;9.00;99.90;;;;;;5075582;28;20028;-81
2021/03/07 05:24:07;;;;;;;25.00;13.38;;;9.40;99.90;;;;;;5076157;28;20021;-81
2021/03/07 05:26:32;;;;;;;21.48;12.57;;;9.00;99.90;;;;;;5058447;28;20534;-82
2021/03/07 05:28:58;;;;;;;21.13;12.77;;;9.10;99.90;;;;;;5096441;28;20023;-82
2021/03/07 05:31:24;;;;;;;21.70;11.27;;;9.00;99.90;;;;;;5096113;28;20107;-82
2021/03/07 05:33:49;;;;;;;39.85;26.27;;;9.30;99.90;;;;;;5087925;28;20027;-81
2021/03/07 05:36:16;;;;;;;40.45;27.38;;;8.80;99.90;;;;;;5093268;28;20111;-81
2021/03/07 05:38:42;;;;;;;38.90;27.27;;;8.90;99.90;;;;;;5095840;28;20024;-80
2021/03/07 05:41:10;;;;;;;38.13;26.50;;;8.40;99.90;;;;;;5095876;28;20024;-80
2021/03/07 05:43:37;;;;;;;36.17;27.33;;;8.10;99.90;;;;;;5095673;28;20028;-80
2021/03/07 05:46:02;;;;;;;34.65;26.40;;;7.80;99.90;;;;;;5095569;28;20021;-81
2021/03/07 05:48:29;;;;;;;38.55;27.38;;;7.80;99.90;;;;;;5074386;28;20082;-81
2021/03/07 05:50:56;;;;;;;37.47;27.05;;;7.90;99.90;;;;;;5092218;28;20381;-80
2021/03/07 05:53:22;;;;;;;42.60;28.20;;;7.70;99.90;;;;;;5095510;28;20016;-80
2021/03/07 05:55:48;;;;;;;36.67;27.02;;;7.80;99.90;;;;;;5086232;28;20461;-80
2021/03/07 05:58:16;;;;;;;38.28;26.88;;;7.70;99.90;;;;;;5074248;28;20013;-80
2021/03/07 06:00:41;;;;;;;39.60;27.13;;;7.60;99.90;;;;;;5074912;28;20016;-80
2021/03/07 06:03:07;;;;;;;38.85;27.05;;;8.10;99.90;;;;;;5074536;28;20052;-80
2021/03/07 06:05:34;;;;;;;36.10;27.00;;;7.60;99.90;;;;;;5090696;28;20049;-80
2021/03/07 06:08:00;;;;;;;36.85;26.75;;;8.00;99.90;;;;;;5095137;28;20030;-82
2021/03/07 06:10:28;;;;;;;41.38;27.95;;;7.70;99.90;;;;;;5095561;28;20024;-80
2021/03/07 06:13:10;;;;;;;39.92;27.15;;;7.90;99.90;;;;;;5095065;28;20024;-80
2021/03/07 06:15:37;;;;;;;36.90;26.38;;;8.10;99.90;;;;;;5072996;28;20897;-86
2021/03/07 06:18:14;;;;;;;37.25;25.77;;;7.90;99.90;;;;;;5080427;28;20036;-80
2021/03/07 06:20:41;;;;;;;38.70;27.67;;;7.80;99.90;;;;;;5077484;28;20020;-80
2021/03/07 06:23:06;;;;;;;37.85;25.98;;;7.80;99.90;;;;;;5090737;28;20476;-80
2021/03/07 06:25:33;;;;;;;38.22;27.20;;;7.80;99.90;;;;;;5090676;28;20054;-80
2021/03/07 06:28:00;;;;;;;40.10;28.63;;;7.90;99.90;;;;;;5091618;28;20023;-80
2021/03/07 06:30:30;;;;;;;40.55;27.23;;;7.90;99.90;;;;;;5086205;28;20017;-80
2021/03/07 06:33:01;;;;;;;41.17;29.48;;;8.10;99.90;;;;;;5093005;28;20020;-80
2021/03/07 06:35:34;;;;;;;39.25;26.88;;;7.90;99.90;;;;;;5092230;28;20099;-80
2021/03/07 06:38:08;;;;;;;38.00;27.42;;;7.80;99.90;;;;;;5074544;28;20036;-80
2021/03/07 06:40:42;;;;;;;39.70;27.25;;;7.80;99.90;;;;;;5088926;28;20028;-80
2021/03/07 06:43:22;;;;;;;37.78;26.50;;;7.80;99.90;;;;;;5091607;28;20028;-80
2021/03/07 06:45:48;;;;;;;35.58;25.63;;;7.70;99.90;;;;;;5074797;28;20068;-80
2021/03/07 06:48:14;;;;;;;39.30;26.52;;;7.80;99.90;;;;;;5076813;28;20044;-80
2021/03/07 06:50:54;;;;;;;39.00;25.80;;;7.80;99.90;;;;;;5085986;28;20531;-80
2021/03/07 06:53:37;;;;;;;36.13;24.77;;;7.80;99.90;;;;;;5090633;28;20020;-80
2021/03/07 06:56:04;;;;;;;32.10;23.27;;;7.80;99.90;;;;;;5075962;28;20048;-80
2021/03/07 06:58:30;;;;;;;31.75;22.52;;;7.70;99.90;;;;;;5063405;28;20056;-80
2021/03/07 07:00:55;;;;;;;31.42;22.13;;;7.80;99.90;;;;;;5092097;28;20016;-80
2021/03/07 07:03:21;;;;;;;29.35;21.05;;;8.10;99.90;;;;;;5090065;28;20058;-80
2021/03/07 07:05:52;;;;;;;30.30;22.13;;;8.10;99.90;;;;;;5082722;28;20120;-80
2021/03/07 07:08:39;;;;;;;29.75;21.25;;;8.30;99.90;;;;;;5089110;28;20016;-80
2021/03/07 07:11:06;;;;;;;31.85;21.77;;;8.40;99.90;;;;;;5075625;28;20028;-80
2021/03/07 07:13:45;;;;;;;28.83;21.23;;;8.50;99.90;;;;;;5087025;28;20065;-80
2021/03/07 07:16:12;;;;;;;28.33;21.42;;;8.40;99.90;;;;;;5067183;28;20024;-82
2021/03/07 07:18:41;;;;;;;32.35;22.92;;;8.50;99.90;;;;;;5094753;28;20357;-81
2021/03/07 07:21:10;;;;;;;32.25;22.38;;;8.60;99.90;;;;;;5093874;28;20328;-80
2021/03/07 07:23:36;;;;;;;27.83;21.98;;;8.70;99.90;;;;;;5093569;28;20059;-81
2021/03/07 07:26:03;;;;;;;28.98;21.23;;;8.80;99.90;;;;;;5092997;28;20090;-81
2021/03/07 07:28:30;;;;;;;27.73;20.65;;;8.80;99.90;;;;;;5093031;28;20020;-86
2021/03/07 07:31:15;;;;;;;32.05;21.30;;;9.00;99.90;;;;;;5093178;28;20024;-83
2021/03/07 07:33:44;;;;;;;28.02;20.38;;;8.90;99.90;;;;;;5093773;28;20026;-81
2021/03/07 07:36:13;;;;;;;27.33;20.80;;;9.50;99.90;;;;;;5094022;28;20051;-81
2021/03/07 07:38:40;;;;;;;28.58;20.70;;;9.40;99.90;;;;;;5092908;28;20365;-81
2021/03/07 07:41:36;;;;;;;30.70;21.20;;;9.50;99.90;;;;;;5093631;28;20079;-81
2021/03/07 07:44:04;;;;;;;26.85;19.90;;;9.70;99.90;;;;;;5093927;28;20027;-81
2021/03/07 07:46:31;;;;;;;25.00;18.55;;;9.80;99.90;;;;;;5093707;28;20024;-81
2021/03/07 07:48:57;;;;;;;31.08;20.58;;;9.80;99.90;;;;;;5093519;28;20076;-81
2021/03/07 07:51:31;;;;;;;29.63;20.77;;;10.10;99.90;;;;;;5093651;28;20032;-81
2021/03/07 07:53:58;;;;;;;29.17;20.63;;;10.30;99.90;;;;;;5093694;28;20024;-81
2021/03/07 07:56:33;;;;;;;28.58;20.15;;;10.60;99.90;;;;;;5093045;28;20489;-81
2021/03/07 07:58:59;;;;;;;29.85;19.83;;;10.80;99.90;;;;;;5093510;28;20128;-81
2021/03/07 08:01:50;;;;;;;25.80;18.95;;;10.90;99.90;;;;;;5093385;28;20024;-81
2021/03/07 08:04:27;;;;;;;25.27;18.25;;;11.10;99.90;;;;;;5093350;28;20040;-81
2021/03/07 08:06:56;;;;;;;27.77;20.05;;;11.10;99.90;;;;;;5093529;28;20024;-81
2021/03/07 08:09:49;;;;;;;26.48;18.60;;;11.20;99.90;;;;;;5093276;28;20044;-81
2021/03/07 08:12:40;;;;;;;24.70;18.52;;;11.30;99.90;;;;;;5089165;28;20047;-81
2021/03/07 08:15:26;;;;;;;27.73;19.45;;;11.30;99.90;;;;;;5093389;28;20435;-81
2021/03/07 08:17:52;;;;;;;25.23;19.00;;;11.30;99.90;;;;;;5075768;28;20036;-81
2021/03/07 08:20:37;;;;;;;24.40;18.65;;;11.40;99.90;;;;;;5093343;28;20028;-81
2021/03/07 08:23:06;;;;;;;21.90;17.60;;;11.30;99.90;;;;;;5093221;28;20497;-81
2021/03/07 08:25:50;;;;;;;24.75;18.63;;;11.40;99.90;;;;;;5092369;28;20475;-81
2021/03/07 08:30:53;;;;;;;23.75;17.95;;;11.30;99.90;;;;;;5092819;28;20122;-81
2021/03/07 08:33:39;;;;;;;23.45;17.65;;;11.50;99.90;;;;;;5092797;28;20372;-81
2021/03/07 08:36:17;;;;;;;24.38;17.63;;;11.60;99.90;;;;;;5092940;28;20475;-81
2021/03/07 08:38:49;;;;;;;22.40;16.92;;;11.80;99.90;;;;;;5074673;28;20023;-81
2021/03/07 08:41:16;;;;;;;23.95;17.38;;;12.10;99.90;;;;;;5092618;28;20103;-81
2021/03/07 08:43:43;;;;;;;19.65;14.57;;;12.30;99.90;;;;;;5092654;28;20526;-81
2021/03/07 08:46:15;;;;;;;18.65;14.18;;;12.70;99.90;;;;;;5092363;28;20490;-81
2021/03/07 08:48:52;;;;;;;18.08;13.20;;;13.10;99.90;;;;;;5092719;28;20125;-81
2021/03/07 08:51:28;;;;;;;17.77;12.80;;;13.70;99.90;;;;;;5092655;28;20047;-81
2021/03/07 08:54:01;;;;;;;18.63;13.77;;;15.60;99.90;;;;;;5092214;28;20060;-81
2021/03/07 08:56:27;;;;;;;16.75;12.85;;;17.90;99.90;;;;;;5092680;28;20013;-81
2021/03/07 08:58:53;;;;;;;19.10;13.63;;;19.70;99.90;;;;;;5074445;28;20035;-81
2021/03/07 09:01:19;;;;;;;17.15;12.32;;;21.10;99.90;;;;;;5092639;28;20099;-81
2021/03/07 09:03:55;;;;;;;15.75;13.00;;;21.70;99.90;;;;;;5092190;28;20060;-81
2021/03/07 09:06:25;;;;;;;17.50;14.27;;;22.40;99.90;;;;;;5092423;28;20399;-81
2021/03/07 09:09:11;;;;;;;19.98;12.95;;;23.90;99.90;;;;;;5092073;28;20088;-81
2021/03/07 09:11:45;;;;;;;13.13;10.82;;;24.50;99.90;;;;;;5092505;28;20016;-81
2021/03/07 09:14:10;;;;;;;14.93;11.60;;;24.50;99.90;;;;;;5092576;28;20036;-81
2021/03/07 09:16:45;;;;;;;17.23;11.95;;;24.80;99.90;;;;;;5091865;28;20388;-81
2021/03/07 09:19:25;;;;;;;18.20;13.35;;;25.10;99.90;;;;;;5074219;28;20028;-79
2021/03/07 09:22:11;;;;;;;15.40;11.90;;;25.40;99.90;;;;;;5087790;28;20024;-79
2021/03/07 09:24:37;;;;;;;18.08;12.38;;;21.60;99.90;;;;;;5092000;28;20021;-79
2021/03/07 09:27:11;;;;;;;16.80;11.50;;;18.80;99.90;;;;;;5092511;28;20032;-79
2021/03/07 09:29:50;;;;;;;16.35;10.80;;;17.80;99.90;;;;;;5090809;28;20377;-79
2021/03/07 09:32:33;;;;;;;16.48;11.63;;;17.20;99.90;;;;;;5072229;28;20465;-79
2021/03/07 09:35:14;;;;;;;18.70;11.80;;;16.90;99.90;;;;;;5071985;28;20028;-79
2021/03/07 09:37:40;;;;;;;16.77;11.77;;;16.20;99.90;;;;;;5071557;28;20032;-79
2021/03/07 09:40:11;;;;;;;17.23;12.60;;;16.00;99.90;;;;;;5072011;28;20025;-79
2021/03/07 09:42:40;;;;;;;17.48;12.32;;;15.80;99.90;;;;;;5071921;28;20025;-79
2021/03/07 09:45:08;;;;;;;24.40;13.25;;;16.20;99.90;;;;;;5072032;28;20074;-79
2021/03/07 09:47:34;;;;;;;16.65;12.07;;;18.90;99.90;;;;;;5074550;28;20035;-79
2021/03/07 09:50:00;;;;;;;16.63;12.05;;;18.30;99.90;;;;;;5092011;28;20016;-79
2021/03/07 09:52:26;;;;;;;15.98;11.55;;;17.40;99.90;;;;;;5091136;28;20031;-79
2021/03/07 09:54:56;;;;;;;17.80;11.95;;;16.80;99.90;;;;;;5091635;28;20020;-79
2021/03/07 09:57:22;;;;;;;19.35;12.10;;;17.00;99.90;;;;;;5092055;28;20104;-79
2021/03/07 09:59:50;;;;;;;15.90;11.05;;;17.60;99.90;;;;;;5091517;28;20103;-79
2021/03/07 10:02:17;;;;;;;18.83;11.20;;;21.00;99.90;;;;;;5092653;28;20099;-79
2021/03/07 10:04:48;;;;;;;13.98;10.00;;;22.20;99.90;;;;;;5095707;28;20020;-79
2021/03/07 10:07:17;;;;;;;14.18;8.15;;;27.60;99.90;;;;;;5095420;28;20016;-79
2021/03/07 10:10:00;;;;;;;14.02;7.30;;;30.30;99.90;;;;;;5095628;28;20045;-79
2021/03/07 10:12:56;;;;;;;12.30;7.47;;;30.10;99.90;;;;;;5095672;28;20024;-79
2021/03/07 10:15:28;;;;;;;13.43;7.32;;;28.20;99.90;;;;;;5095394;28;20016;-79
2021/03/07 10:17:56;;;;;;;11.70;7.28;;;29.90;99.90;;;;;;5095381;28;20020;-79
2021/03/07 10:20:23;;;;;;;13.60;7.82;;;29.70;99.90;;;;;;5077287;28;20115;-79
2021/03/07 10:22:49;;;;;;;14.15;8.20;;;24.50;99.90;;;;;;5095063;28;20035;-79
2021/03/07 10:25:25;;;;;;;14.43;7.90;;;21.60;99.90;;;;;;5095477;28;20024;-79
2021/03/07 10:27:55;;;;;;;11.90;8.07;;;19.40;99.90;;;;;;5095354;28;20107;-79
2021/03/07 10:30:34;;;;;;;12.35;7.88;;;18.50;99.90;;;;;;5095285;28;20048;-79
2021/03/07 10:33:29;;;;;;;13.93;7.32;;;18.30;99.90;;;;;;5095009;28;20053;-79
2021/03/07 10:36:06;;;;;;;10.75;6.97;;;23.50;99.90;;;;;;5073688;28;20032;-79
2021/03/07 10:38:37;;;;;;;13.43;7.45;;;25.00;99.90;;;;;;5095197;28;20020;-79
2021/03/07 10:41:20;;;;;;;12.57;6.60;;;28.30;99.90;;;;;;5095191;28;20464;-79
2021/03/07 10:43:54;;;;;;;13.65;7.70;;;27.10;99.90;;;;;;5094605;28;20095;-79
2021/03/07 10:46:24;;;;;;;10.43;6.63;;;25.30;99.90;;;;;;5095063;28;20031;-79
2021/03/07 10:48:53;;;;;;;12.95;6.85;;;26.70;99.90;;;;;;5094779;28;20058;-79
2021/03/07 10:51:19;;;;;;;12.77;7.13;;;30.10;99.90;;;;;;5094680;28;20103;-79
2021/03/07 10:53:45;;;;;;;17.42;8.02;;;30.70;99.90;;;;;;5094753;28;20028;-79
2021/03/07 10:56:10;;;;;;;14.50;8.23;;;25.70;99.90;;;;;;5094878;28;20093;-79
2021/03/07 10:58:36;;;;;;;13.13;7.43;;;21.80;99.90;;;;;;5094319;28;20024;-79
2021/03/07 11:01:01;;;;;;;12.82;7.72;;;20.30;99.90;;;;;;5094264;28;20031;-79
2021/03/07 11:03:27;;;;;;;16.65;8.73;;;20.00;99.90;;;;;;5094482;28;20070;-79
2021/03/07 11:05:53;;;;;;;11.57;7.93;;;18.50;99.90;;;;;;5094259;28;20028;-79
2021/03/07 11:08:18;;;;;;;15.45;7.85;;;17.80;99.90;;;;;;5094504;28;20526;-79
2021/03/07 11:10:44;;;;;;;14.93;7.45;;;16.70;99.90;;;;;;5094503;28;20024;-79
2021/03/07 11:13:09;;;;;;;15.15;7.20;;;16.40;99.90;;;;;;5094048;28;20388;-79
2021/03/07 11:15:35;;;;;;;13.30;7.65;;;16.50;99.90;;;;;;5094352;28;20022;-79
2021/03/07 11:18:01;;;;;;;15.82;8.25;;;16.10;99.90;;;;;;5094393;28;20107;-78
2021/03/07 11:20:26;;;;;;;16.60;7.18;;;16.10;99.90;;;;;;5094072;28;20051;-78
2021/03/07 11:22:52;;;;;;;13.52;7.28;;;16.40;99.90;;;;;;5094255;28;20484;-78
2021/03/07 11:25:17;;;;;;;14.98;7.28;;;16.60;99.90;;;;;;5094411;28;20081;-78
2021/03/07 11:27:43;;;;;;;14.55;8.07;;;17.10;99.90;;;;;;5094218;28;20024;-78
2021/03/07 11:30:10;;;;;;;17.90;7.13;;;16.70;99.90;;;;;;5093954;28;20075;-78
2021/03/07 11:32:36;;;;;;;12.45;7.70;;;17.60;99.90;;;;;;5093973;28;20031;-78
2021/03/07 11:35:02;;;;;;;17.13;7.72;;;17.80;99.90;;;;;;5093489;28;20024;-78
2021/03/07 11:37:27;;;;;;;13.70;7.90;;;17.70;99.90;;;;;;5094238;28;20028;-78
2021/03/07 11:39:53;;;;;;;10.02;7.25;;;17.30;99.90;;;;;;5093837;28;20027;-78
2021/03/07 11:42:19;;;;;;;13.90;8.13;;;17.50;99.90;;;;;;5094030;28;20102;-78
2021/03/07 11:44:44;;;;;;;13.32;8.27;;;17.10;99.90;;;;;;5093332;28;20091;-78
2021/03/07 11:47:10;;;;;;;16.05;8.07;;;17.60;99.90;;;;;;5093917;28;20085;-78
2021/03/07 11:49:36;;;;;;;15.52;8.30;;;17.70;99.90;;;;;;5093374;28;20488;-78
2021/03/07 11:52:01;;;;;;;13.82;7.40;;;18.10;99.90;;;;;;5093776;28;20036;-78
2021/03/07 11:54:27;;;;;;;18.85;8.27;;;18.20;99.90;;;;;;5093805;28;20047;-78
2021/03/07 11:56:52;;;;;;;13.82;7.75;;;17.20;99.90;;;;;;5093692;28;20437;-78
2021/03/07 11:59:18;;;;;;;16.55;8.30;;;16.90;99.90;;;;;;5093805;28;20016;-78
2021/03/07 12:01:44;;;;;;;13.40;8.13;;;16.90;99.90;;;;;;5093641;28;20109;-78
2021/03/07 12:04:09;;;;;;;12.50;7.38;;;16.70;99.90;;;;;;5092808;28;20102;-78
2021/03/07 12:06:35;;;;;;;10.27;7.50;;;16.70;99.90;;;;;;5093486;28;20388;-78
2021/03/07 12:09:00;;;;;;;13.57;8.07;;;16.40;99.90;;;;;;5093379;28;20034;-78
2021/03/07 12:11:26;;;;;;;14.98;8.75;;;16.30;99.90;;;;;;5093014;28;20036;-78
2021/03/07 12:13:52;;;;;;;15.10;7.68;;;16.30;99.90;;;;;;5093339;28;20020;-78
2021/03/07 12:16:17;;;;;;;13.43;7.45;;;16.40;99.90;;;;;;5093621;28;20027;-78
2021/03/07 12:18:43;;;;;;;11.45;8.23;;;16.20;99.90;;;;;;5092380;28;20509;-78
2021/03/07 12:21:10;;;;;;;14.68;7.97;;;16.20;99.90;;;;;;5093122;28;20028;-78
2021/03/07 12:23:35;;;;;;;12.90;8.35;;;16.30;99.90;;;;;;5093264;28;20027;-78
2021/03/07 12:26:01;;;;;;;13.45;7.82;;;16.70;99.90;;;;;;5092357;28;20036;-78
2021/03/07 12:28:26;;;;;;;15.00;7.25;;;17.90;99.90;;;;;;5093209;28;20388;-78
2021/03/07 12:30:52;;;;;;;12.93;6.95;;;24.40;99.90;;;;;;5092964;28;20046;-78
2021/03/07 12:33:19;;;;;;;12.90;6.95;;;26.40;99.90;;;;;;5092562;28;20031;-78
2021/03/07 12:35:44;;;;;;;12.82;6.63;;;28.30;99.90;;;;;;5092948;28;20020;-78
2021/03/07 12:38:10;;;;;;;11.52;6.68;;;30.30;99.90;;;;;;5092901;28;20126;-79
2021/03/07 12:40:35;;;;;;;17.05;7.47;;;29.30;99.90;;;;;;5092785;28;20024;-79
2021/03/07 12:43:01;;;;;;;9.63;7.18;;;27.00;99.90;;;;;;5092631;28;20063;-79
2021/03/07 12:45:27;;;;;;;16.15;7.35;;;28.50;99.90;;;;;;5092725;28;20024;-79
2021/03/07 12:47:53;;;;;;;15.15;7.45;;;29.70;99.90;;;;;;5092409;28;20020;-79